Time;durP1;ratioP1;P1;durP2;ratioP2;P2;SDS_P1;SDS_P2;PMS_P1;PMS_P2;Temp;Humidity;BMP_temperature;BMP_pressure;BME280_temperature;BME280_humidity;BME280_pressure;Samples;Min_cycle;Max_cycle;Signal;HPM_P1;HPM_P2
2021/03/18 00:01:44;;;;;;;7.27;5.47;;;1.50;99.90;;;;;;5094587;28;20223;-61
2021/03/18 00:04:13;;;;;;;7.03;5.80;;;1.50;99.90;;;;;;5094651;28;20196;-60
2021/03/18 00:06:40;;;;;;;6.60;5.67;;;1.40;99.90;;;;;;5094660;28;20687;-61
2021/03/18 00:09:08;;;;;;;8.20;6.10;;;1.30;99.90;;;;;;5094921;28;20291;-61
2021/03/18 00:11:38;;;;;;;7.63;5.77;;;1.20;99.90;;;;;;5094697;28;20290;-61
2021/03/18 00:14:06;;;;;;;7.13;6.10;;;1.20;99.90;;;;;;5094564;28;20718;-61
2021/03/18 00:16:32;;;;;;;6.90;5.60;;;1.20;99.90;;;;;;5094598;28;20232;-61
2021/03/18 00:19:00;;;;;;;6.77;5.83;;;1.20;99.90;;;;;;5094475;28;20651;-60
2021/03/18 00:21:26;;;;;;;7.57;6.60;;;1.30;99.90;;;;;;5094513;28;20297;-61
2021/03/18 00:23:53;;;;;;;8.00;6.30;;;1.40;99.90;;;;;;5094656;28;20261;-60
2021/03/18 00:26:22;;;;;;;9.17;6.77;;;1.30;99.90;;;;;;5094597;28;20279;-61
2021/03/18 00:28:49;;;;;;;7.20;6.27;;;1.30;99.90;;;;;;5094491;28;20204;-61
2021/03/18 00:31:19;;;;;;;8.83;6.40;;;1.40;99.90;;;;;;5094607;28;20252;-60
2021/03/18 00:33:46;;;;;;;7.97;6.33;;;1.40;99.90;;;;;;5094141;28;20180;-61
2021/03/18 00:36:13;;;;;;;8.50;7.07;;;1.60;99.90;;;;;;5094408;28;20630;-62
2021/03/18 00:38:40;;;;;;;8.27;7.00;;;1.70;99.90;;;;;;5093950;28;20606;-61
2021/03/18 00:41:10;;;;;;;8.47;7.17;;;1.80;99.90;;;;;;5094089;28;20674;-61
2021/03/18 00:43:37;;;;;;;9.80;7.57;;;1.90;99.90;;;;;;5093872;28;20306;-61
2021/03/18 00:46:05;;;;;;;9.77;7.77;;;1.80;99.90;;;;;;5093704;28;20754;-61
2021/03/18 00:48:33;;;;;;;9.50;7.80;;;1.70;99.90;;;;;;5093844;28;20238;-61
2021/03/18 00:51:02;;;;;;;8.57;7.67;;;1.60;99.90;;;;;;5094100;28;20207;-61
2021/03/18 00:53:36;;;;;;;8.87;7.07;;;1.50;99.90;;;;;;5093898;28;20314;-61
2021/03/18 00:56:07;;;;;;;7.90;6.83;;;1.30;99.90;;;;;;5093976;28;20628;-61
2021/03/18 00:58:34;;;;;;;8.23;7.33;;;1.30;99.90;;;;;;5093625;28;20670;-61
2021/03/18 01:01:04;;;;;;;8.33;7.43;;;1.10;99.90;;;;;;5094004;28;20283;-61
2021/03/18 01:03:35;;;;;;;9.00;7.63;;;1.20;99.90;;;;;;5093566;28;20223;-61
2021/03/18 01:06:07;;;;;;;10.20;7.60;;;1.10;99.90;;;;;;5093985;28;20208;-62
2021/03/18 01:08:36;;;;;;;10.20;8.07;;;1.00;99.90;;;;;;5093476;28;20189;-62
2021/03/18 01:11:06;;;;;;;11.17;8.10;;;0.90;99.90;;;;;;5093660;28;20228;-60
2021/03/18 01:13:33;;;;;;;8.53;7.60;;;0.80;99.90;;;;;;5093650;28;20593;-60
2021/03/18 01:16:03;;;;;;;9.77;8.00;;;0.70;99.90;;;;;;5093467;28;20212;-59
2021/03/18 01:18:36;;;;;;;9.77;8.03;;;0.70;99.90;;;;;;5093428;28;20216;-61
2021/03/18 01:21:04;;;;;;;9.67;8.33;;;0.60;99.90;;;;;;5093394;28;20691;-62
2021/03/18 01:23:31;;;;;;;10.90;9.33;;;0.60;99.90;;;;;;5093013;28;20314;-61
2021/03/18 01:25:58;;;;;;;11.47;8.93;;;0.50;99.90;;;;;;5093173;28;20298;-61
2021/03/18 01:28:25;;;;;;;11.43;9.00;;;0.40;99.90;;;;;;5093415;28;20207;-61
2021/03/18 01:30:53;;;;;;;12.83;10.90;;;0.30;99.90;;;;;;5093417;28;20208;-61
2021/03/18 01:33:20;;;;;;;15.20;11.63;;;0.30;99.90;;;;;;5093356;28;20287;-60
2021/03/18 01:35:48;;;;;;;13.43;11.23;;;0.30;99.90;;;;;;5093152;28;20280;-61
2021/03/18 01:38:15;;;;;;;12.27;10.83;;;0.20;99.90;;;;;;5093196;28;20541;-61
2021/03/18 01:40:42;;;;;;;12.47;10.30;;;0.10;99.90;;;;;;5093228;28;20267;-60
2021/03/18 01:43:09;;;;;;;13.17;10.77;;;0.10;99.90;;;;;;5092915;28;20675;-61
2021/03/18 01:45:36;;;;;;;11.73;9.67;;;0.20;99.90;;;;;;5093222;28;20231;-61
2021/03/18 01:48:05;;;;;;;11.33;9.57;;;0.20;99.90;;;;;;5092690;28;20207;-62
2021/03/18 01:50:35;;;;;;;12.30;9.30;;;0.20;99.90;;;;;;5092501;28;20896;-61
2021/03/18 01:53:04;;;;;;;11.33;8.57;;;0.30;99.90;;;;;;5092197;28;20315;-62
2021/03/18 01:55:35;;;;;;;10.43;9.07;;;0.40;99.90;;;;;;5092956;28;20242;-61
2021/03/18 01:58:02;;;;;;;12.47;9.60;;;0.50;99.90;;;;;;5092188;28;20191;-62
2021/03/18 02:00:30;;;;;;;11.73;9.20;;;0.50;99.90;;;;;;5092706;28;20587;-61
2021/03/18 02:02:58;;;;;;;10.90;9.30;;;0.50;99.90;;;;;;5092528;28;20223;-61
2021/03/18 02:05:27;;;;;;;11.60;9.47;;;0.50;99.90;;;;;;5092789;28;20291;-61
2021/03/18 02:07:55;;;;;;;12.70;10.03;;;0.40;99.90;;;;;;5092909;28;20250;-61
2021/03/18 02:10:25;;;;;;;15.83;12.70;;;0.40;99.90;;;;;;5092865;28;20203;-61
2021/03/18 02:12:53;;;;;;;15.83;13.27;;;0.30;99.90;;;;;;5092706;28;20230;-61
2021/03/18 02:15:23;;;;;;;16.60;12.80;;;0.20;99.90;;;;;;5092678;28;20206;-61
2021/03/18 02:17:58;;;;;;;18.77;14.67;;;0.20;99.90;;;;;;5092619;28;20184;-62
2021/03/18 02:21:07;;;;;;;16.73;12.47;;;0.10;99.90;;;;;;5092950;28;20215;-62
2021/03/18 02:24:04;;;;;;;12.83;10.27;;;0.20;99.90;;;;;;5092644;28;20295;-60
2021/03/18 02:27:17;;;;;;;14.83;10.47;;;0.30;99.90;;;;;;5092842;28;20271;-60
2021/03/18 02:30:24;;;;;;;11.60;9.33;;;0.40;99.90;;;;;;5091933;28;20255;-61
2021/03/18 02:33:14;;;;;;;14.27;10.47;;;0.40;99.90;;;;;;5092257;28;20238;-61
2021/03/18 02:35:45;;;;;;;13.07;9.67;;;0.40;99.90;;;;;;5092585;28;20628;-61
2021/03/18 02:38:16;;;;;;;12.13;10.00;;;0.30;99.90;;;;;;5092468;28;20192;-62
2021/03/18 02:40:45;;;;;;;13.17;10.60;;;0.30;99.90;;;;;;5092691;28;20217;-60
2021/03/18 02:43:16;;;;;;;16.27;13.40;;;0.20;99.90;;;;;;5092505;28;20220;-61
2021/03/18 02:45:47;;;;;;;17.00;12.93;;;0.20;99.90;;;;;;5092544;28;20216;-61
2021/03/18 02:48:18;;;;;;;16.93;13.97;;;0.10;99.90;;;;;;5092531;28;20215;-62
2021/03/18 02:50:47;;;;;;;16.93;13.00;;;0.00;99.90;;;;;;5092426;28;20663;-61
2021/03/18 02:53:16;;;;;;;16.43;12.87;;;0.00;99.90;;;;;;5092326;28;20224;-61
2021/03/18 02:55:45;;;;;;;17.20;12.60;;;0.00;99.90;;;;;;5092506;28;20563;-61
2021/03/18 02:58:15;;;;;;;15.17;12.43;;;-0.10;99.90;;;;;;5092429;28;20547;-62
2021/03/18 03:00:42;;;;;;;13.47;11.27;;;-0.10;99.90;;;;;;5092414;28;20200;-61
2021/03/18 03:03:10;;;;;;;15.20;12.10;;;-0.10;99.90;;;;;;5092533;28;20228;-61
2021/03/18 03:05:38;;;;;;;14.50;11.57;;;-0.10;99.90;;;;;;5092433;28;20200;-61
2021/03/18 03:08:08;;;;;;;14.87;11.70;;;-0.10;99.90;;;;;;5092693;28;20232;-60
2021/03/18 03:10:37;;;;;;;15.00;12.20;;;-0.20;99.90;;;;;;5096114;28;20219;-62
2021/03/18 03:13:04;;;;;;;15.30;12.63;;;-0.20;99.90;;;;;;5096113;28;20196;-61
2021/03/18 03:15:32;;;;;;;18.47;16.10;;;-0.30;99.90;;;;;;5096190;28;20550;-61
2021/03/18 03:18:04;;;;;;;18.60;15.80;;;-0.20;99.90;;;;;;5095733;28;20296;-61
2021/03/18 03:20:32;;;;;;;15.50;12.33;;;-0.20;99.90;;;;;;5096001;28;20274;-61
2021/03/18 03:23:01;;;;;;;15.67;12.13;;;-0.30;99.90;;;;;;5095894;28;20218;-61
2021/03/18 03:25:29;;;;;;;16.57;12.20;;;-0.30;99.90;;;;;;5095722;28;20232;-60
2021/03/18 03:27:56;;;;;;;17.50;12.57;;;-0.40;99.90;;;;;;5095744;28;20687;-61
2021/03/18 03:30:25;;;;;;;23.70;18.63;;;-0.40;99.90;;;;;;5095477;28;20249;-60
2021/03/18 03:32:52;;;;;;;19.77;16.27;;;-0.40;99.90;;;;;;5095718;28;20286;-62
2021/03/18 03:35:20;;;;;;;15.90;13.27;;;-0.40;99.90;;;;;;5095770;28;20223;-61
2021/03/18 03:37:47;;;;;;;15.57;12.17;;;-0.40;99.90;;;;;;5096024;28;20256;-61
2021/03/18 03:40:17;;;;;;;14.90;12.73;;;-0.40;99.90;;;;;;5100772;28;20208;-61
2021/03/18 03:42:46;;;;;;;16.27;12.50;;;-0.40;99.90;;;;;;5101367;28;20223;-61
2021/03/18 03:45:15;;;;;;;16.00;11.60;;;-0.30;99.90;;;;;;5098390;28;20200;-61
2021/03/18 03:47:44;;;;;;;15.07;11.93;;;-0.30;99.90;;;;;;5096686;28;20245;-61
2021/03/18 03:50:15;;;;;;;13.97;11.07;;;-0.30;99.90;;;;;;5095740;28;20198;-61
2021/03/18 03:52:52;;;;;;;14.13;11.13;;;-0.30;99.90;;;;;;5095243;28;20250;-60
2021/03/18 03:55:27;;;;;;;16.47;12.10;;;-0.30;99.90;;;;;;5095108;28;20186;-61
2021/03/18 03:57:59;;;;;;;14.70;11.03;;;-0.30;99.90;;;;;;5094866;28;20610;-61
2021/03/18 04:00:27;;;;;;;14.83;11.70;;;-0.30;99.90;;;;;;5095103;28;20191;-62
2021/03/18 04:03:00;;;;;;;15.83;12.63;;;-0.30;99.90;;;;;;5095145;28;20204;-61
2021/03/18 04:05:29;;;;;;;17.07;13.93;;;-0.40;99.90;;;;;;5094956;28;20211;-60
2021/03/18 04:08:00;;;;;;;18.87;14.40;;;-0.40;99.90;;;;;;5095018;28;20203;-62
2021/03/18 04:10:29;;;;;;;18.60;14.00;;;-0.40;99.90;;;;;;5094996;28;20248;-62
2021/03/18 04:12:58;;;;;;;19.30;14.43;;;-0.40;99.90;;;;;;5094943;28;20246;-62
2021/03/18 04:15:27;;;;;;;17.90;13.50;;;-0.40;99.90;;;;;;5094757;28;20207;-60
2021/03/18 04:17:58;;;;;;;15.60;13.13;;;-0.30;99.90;;;;;;5095012;28;20201;-60
2021/03/18 04:20:27;;;;;;;15.70;13.27;;;-0.30;99.90;;;;;;5094507;28;20180;-61
2021/03/18 04:22:57;;;;;;;18.17;13.67;;;-0.20;99.90;;;;;;5094780;28;20569;-62
2021/03/18 04:25:26;;;;;;;22.63;17.57;;;-0.10;99.90;;;;;;5094924;28;20205;-62
2021/03/18 04:27:56;;;;;;;22.93;18.23;;;-0.20;99.90;;;;;;5094409;28;20636;-61
2021/03/18 04:30:25;;;;;;;27.87;21.17;;;-0.20;99.90;;;;;;5094543;28;20748;-62
2021/03/18 04:32:53;;;;;;;26.83;21.53;;;-0.10;99.90;;;;;;5094654;28;20196;-61
2021/03/18 04:35:20;;;;;;;20.07;17.00;;;-0.10;99.90;;;;;;5094734;28;20554;-61
2021/03/18 04:37:48;;;;;;;21.83;16.33;;;-0.10;99.90;;;;;;5094294;28;20773;-61
2021/03/18 04:40:18;;;;;;;20.90;16.17;;;-0.10;99.90;;;;;;5094346;28;20673;-61
2021/03/18 04:42:46;;;;;;;20.07;16.00;;;0.00;99.90;;;;;;5094157;28;20615;-61
2021/03/18 04:45:14;;;;;;;21.40;17.50;;;0.00;99.90;;;;;;5094271;28;20249;-61
2021/03/18 04:47:42;;;;;;;19.87;15.07;;;0.00;99.90;;;;;;5094434;28;20200;-60
2021/03/18 04:50:13;;;;;;;20.83;15.83;;;0.00;99.90;;;;;;5094088;28;20211;-63
2021/03/18 04:52:40;;;;;;;19.10;15.67;;;0.00;99.90;;;;;;5094015;28;20261;-62
2021/03/18 04:55:09;;;;;;;23.33;15.73;;;0.00;99.90;;;;;;5094240;28;20230;-61
2021/03/18 04:57:43;;;;;;;22.07;15.30;;;0.00;99.90;;;;;;5094191;28;20234;-61
2021/03/18 05:00:13;;;;;;;19.60;14.90;;;0.00;99.90;;;;;;5093866;28;20290;-61
2021/03/18 05:02:43;;;;;;;17.10;13.47;;;0.10;99.90;;;;;;5091757;28;20225;-62
2021/03/18 05:05:18;;;;;;;16.80;13.03;;;0.00;99.90;;;;;;5085447;28;20344;-61
2021/03/18 05:07:47;;;;;;;16.83;13.57;;;0.00;99.90;;;;;;5073567;28;20247;-61
2021/03/18 05:10:17;;;;;;;17.80;13.70;;;0.20;99.90;;;;;;5073940;28;20208;-61
2021/03/18 05:12:45;;;;;;;16.17;13.57;;;0.10;99.90;;;;;;5081316;28;20227;-61
2021/03/18 05:15:13;;;;;;;17.30;13.37;;;0.10;99.90;;;;;;5089383;28;20291;-61
2021/03/18 05:17:42;;;;;;;18.70;16.03;;;0.00;99.90;;;;;;5093462;28;20237;-61
2021/03/18 05:20:13;;;;;;;17.73;15.37;;;0.10;99.90;;;;;;5090619;28;20204;-60
2021/03/18 05:22:40;;;;;;;19.07;14.10;;;0.10;99.90;;;;;;5093499;28;20279;-62
2021/03/18 05:25:11;;;;;;;19.90;15.87;;;0.10;99.90;;;;;;5093234;28;20207;-62
2021/03/18 05:27:39;;;;;;;22.83;17.37;;;0.10;99.90;;;;;;5093676;28;20578;-61
2021/03/18 05:30:09;;;;;;;21.50;17.23;;;0.10;99.90;;;;;;5093791;28;20200;-61
2021/03/18 05:32:36;;;;;;;17.30;14.77;;;0.20;99.90;;;;;;5092266;28;20661;-61
2021/03/18 05:35:05;;;;;;;19.30;15.37;;;0.20;99.90;;;;;;5091028;28;20235;-60
2021/03/18 05:37:33;;;;;;;15.83;13.57;;;0.20;99.90;;;;;;5083309;28;20211;-61
2021/03/18 05:40:02;;;;;;;18.80;14.83;;;0.30;99.90;;;;;;5072577;28;20208;-61
2021/03/18 05:42:29;;;;;;;20.27;15.63;;;0.30;99.90;;;;;;5080458;28;20692;-61
2021/03/18 05:44:56;;;;;;;15.83;13.47;;;0.40;99.90;;;;;;5083955;28;20298;-61
2021/03/18 05:47:23;;;;;;;17.13;13.23;;;0.50;99.90;;;;;;5073011;28;20255;-61
2021/03/18 05:49:51;;;;;;;15.37;12.47;;;0.60;99.90;;;;;;5072537;28;20208;-62
2021/03/18 05:52:20;;;;;;;16.30;12.80;;;0.70;99.90;;;;;;5072392;28;20254;-61
2021/03/18 05:54:49;;;;;;;19.33;13.07;;;0.80;99.90;;;;;;5075233;28;20221;-60
2021/03/18 05:57:18;;;;;;;15.73;12.23;;;0.80;99.90;;;;;;5082363;28;20588;-60
2021/03/18 05:59:47;;;;;;;17.10;12.87;;;0.90;99.90;;;;;;5080189;28;20224;-60
2021/03/18 06:02:14;;;;;;;16.20;12.77;;;1.00;99.90;;;;;;5083784;28;20262;-60
2021/03/18 06:04:42;;;;;;;16.20;12.67;;;1.00;99.90;;;;;;5092420;28;20322;-61
2021/03/18 06:07:10;;;;;;;15.63;12.47;;;1.20;99.90;;;;;;5092475;28;20256;-61
2021/03/18 06:09:37;;;;;;;14.97;12.10;;;1.40;99.90;;;;;;5092558;28;20203;-61
2021/03/18 06:12:06;;;;;;;15.43;12.27;;;1.40;99.90;;;;;;5092778;28;20232;-60
2021/03/18 06:14:33;;;;;;;17.33;13.00;;;1.40;99.90;;;;;;5092517;28;20204;-61
2021/03/18 06:17:01;;;;;;;18.07;13.10;;;1.60;99.90;;;;;;5092199;28;20638;-60
2021/03/18 06:19:28;;;;;;;17.10;12.67;;;1.70;99.90;;;;;;5087179;28;20204;-60
2021/03/18 06:21:57;;;;;;;17.17;13.20;;;1.80;99.90;;;;;;5091332;28;20203;-60
2021/03/18 06:24:27;;;;;;;17.13;13.80;;;1.90;99.90;;;;;;5083990;28;20699;-60
2021/03/18 06:26:54;;;;;;;17.90;14.13;;;1.90;99.90;;;;;;5079102;28;20735;-61
2021/03/18 06:29:34;;;;;;;17.37;13.40;;;1.90;99.90;;;;;;5072302;28;20228;-60
2021/03/18 06:32:15;;;;;;;16.77;13.73;;;2.00;99.90;;;;;;5072515;28;20594;-60
2021/03/18 06:34:45;;;;;;;20.57;14.33;;;2.10;99.90;;;;;;5072022;28;20212;-60
2021/03/18 06:37:31;;;;;;;17.23;13.87;;;2.30;99.90;;;;;;5076341;28;20300;-60
2021/03/18 06:39:59;;;;;;;17.57;13.97;;;2.40;99.90;;;;;;5072181;28;20234;-61
2021/03/18 06:42:26;;;;;;;18.07;13.87;;;2.50;99.90;;;;;;5071941;28;20654;-61
2021/03/18 06:45:10;;;;;;;17.30;13.47;;;2.50;99.90;;;;;;5075424;28;20197;-61
2021/03/18 06:47:43;;;;;;;18.60;13.80;;;2.60;99.90;;;;;;5075944;28;20273;-61
2021/03/18 06:50:11;;;;;;;17.50;13.47;;;2.70;99.90;;;;;;5076004;28;20239;-61
2021/03/18 06:52:39;;;;;;;16.13;12.90;;;2.80;99.90;;;;;;5075455;28;20899;-61
2021/03/18 06:55:09;;;;;;;15.57;12.10;;;2.80;99.90;;;;;;5075740;28;20669;-61
2021/03/18 06:57:36;;;;;;;17.13;12.63;;;2.80;99.90;;;;;;5075911;28;20221;-61
2021/03/18 07:00:06;;;;;;;17.33;12.37;;;2.80;99.90;;;;;;5075443;28;20266;-63
2021/03/18 07:02:43;;;;;;;17.13;12.97;;;2.80;99.90;;;;;;5075553;28;20296;-61
2021/03/18 07:05:18;;;;;;;19.40;13.53;;;2.70;99.90;;;;;;5075797;28;20193;-61
2021/03/18 07:07:47;;;;;;;19.50;13.30;;;2.80;99.90;;;;;;5075507;28;20230;-61
2021/03/18 07:10:15;;;;;;;17.30;13.67;;;2.80;99.90;;;;;;5075740;28;20239;-61
2021/03/18 07:12:42;;;;;;;15.20;12.97;;;2.90;99.90;;;;;;5075676;28;20247;-61
2021/03/18 07:15:19;;;;;;;18.53;12.87;;;3.00;99.90;;;;;;5075474;28;20202;-61
2021/03/18 07:17:57;;;;;;;17.83;14.10;;;3.20;99.90;;;;;;5075381;28;20269;-62
2021/03/18 07:20:25;;;;;;;16.53;13.23;;;3.10;99.90;;;;;;5075474;28;20182;-61
2021/03/18 07:22:54;;;;;;;19.00;13.00;;;3.20;99.90;;;;;;5075344;28;20226;-62
2021/03/18 07:25:25;;;;;;;16.80;12.50;;;3.20;99.90;;;;;;5075566;28;20295;-61
2021/03/18 07:27:54;;;;;;;16.33;12.83;;;3.10;99.90;;;;;;5075190;28;20281;-61
2021/03/18 07:30:27;;;;;;;18.47;13.67;;;3.20;99.90;;;;;;5075412;28;20249;-61
2021/03/18 07:32:57;;;;;;;19.10;13.40;;;3.40;99.90;;;;;;5075403;28;20206;-60
2021/03/18 07:35:26;;;;;;;16.87;12.57;;;3.50;99.90;;;;;;5081451;28;20196;-60
2021/03/18 07:37:54;;;;;;;17.17;13.00;;;3.70;99.90;;;;;;5075063;28;20288;-61
2021/03/18 07:40:21;;;;;;;17.43;13.10;;;4.00;99.90;;;;;;5074411;28;20206;-61
2021/03/18 07:42:49;;;;;;;16.50;12.93;;;4.20;99.90;;;;;;5074558;28;20200;-61
2021/03/18 07:45:18;;;;;;;15.57;12.87;;;4.50;99.90;;;;;;5074233;28;20238;-60
2021/03/18 07:47:46;;;;;;;16.67;12.80;;;4.80;99.90;;;;;;5074158;28;20204;-60
2021/03/18 07:50:17;;;;;;;16.53;13.50;;;4.90;99.90;;;;;;5074649;28;20293;-61
2021/03/18 07:52:47;;;;;;;17.10;13.53;;;4.90;99.90;;;;;;5074839;28;20214;-60
2021/03/18 07:55:17;;;;;;;14.87;12.27;;;5.00;99.90;;;;;;5072711;28;20281;-62
2021/03/18 07:57:47;;;;;;;14.13;12.07;;;4.90;99.90;;;;;;5083573;28;20265;-61
2021/03/18 08:00:17;;;;;;;15.13;12.53;;;4.80;99.90;;;;;;5099635;28;20208;-61
2021/03/18 08:02:44;;;;;;;15.67;12.37;;;4.80;99.90;;;;;;5086925;28;20217;-59
2021/03/18 08:05:11;;;;;;;16.97;12.27;;;5.00;99.90;;;;;;5092400;28;20210;-60
2021/03/18 08:07:44;;;;;;;15.63;13.40;;;5.00;99.90;;;;;;5091448;28;20235;-60
2021/03/18 08:10:13;;;;;;;17.97;13.90;;;5.00;99.90;;;;;;5069751;28;20552;-61
2021/03/18 08:12:44;;;;;;;14.97;12.67;;;5.00;99.90;;;;;;5070723;28;20204;-63
2021/03/18 08:15:22;;;;;;;16.60;13.53;;;5.20;99.90;;;;;;5071089;28;20198;-61
2021/03/18 08:17:50;;;;;;;15.73;12.77;;;5.10;99.90;;;;;;5071260;28;20522;-60
2021/03/18 08:20:50;;;;;;;16.27;12.77;;;5.30;99.90;;;;;;5071382;28;20208;-60
2021/03/18 08:23:40;;;;;;;16.23;12.67;;;5.40;99.90;;;;;;5070517;28;20262;-60
2021/03/18 08:26:10;;;;;;;16.23;12.30;;;5.40;99.90;;;;;;5066796;28;20203;-60
2021/03/18 08:28:40;;;;;;;13.97;11.83;;;5.50;99.90;;;;;;5070185;28;20240;-64
2021/03/18 08:31:11;;;;;;;16.27;12.47;;;5.60;99.90;;;;;;5075444;28;20703;-62
2021/03/18 08:33:39;;;;;;;13.43;11.83;;;5.70;99.90;;;;;;5077216;28;20201;-69
2021/03/18 08:36:24;;;;;;;14.17;11.83;;;5.80;99.90;;;;;;5077329;28;20213;-68
2021/03/18 08:38:55;;;;;;;14.00;12.10;;;5.90;99.90;;;;;;5070456;28;20230;-63
2021/03/18 08:41:34;;;;;;;14.40;11.43;;;5.90;99.90;;;;;;5070539;28;20283;-64
2021/03/18 08:44:12;;;;;;;14.33;12.60;;;6.00;99.90;;;;;;5070233;28;20295;-60
2021/03/18 08:46:42;;;;;;;13.70;11.47;;;5.90;99.90;;;;;;5070331;28;20212;-61
2021/03/18 08:49:30;;;;;;;13.20;11.80;;;5.80;99.90;;;;;;5069916;28;20234;-60
2021/03/18 08:51:59;;;;;;;13.97;11.43;;;5.50;99.90;;;;;;5070652;28;20245;-63
2021/03/18 08:54:52;;;;;;;14.50;12.37;;;5.20;99.90;;;;;;5069845;28;20277;-62
2021/03/18 08:57:28;;;;;;;14.97;12.43;;;4.90;99.90;;;;;;5070598;28;20738;-63
2021/03/18 08:59:57;;;;;;;15.20;12.30;;;4.90;99.90;;;;;;5070633;28;20189;-64
2021/03/18 09:02:29;;;;;;;13.93;11.57;;;5.10;99.90;;;;;;5069633;28;20741;-61
2021/03/18 09:04:57;;;;;;;15.70;12.27;;;5.30;99.90;;;;;;5069917;28;20551;-65
2021/03/18 09:07:26;;;;;;;13.23;11.53;;;5.60;99.90;;;;;;5069629;28;20603;-65
2021/03/18 09:10:04;;;;;;;12.43;11.13;;;5.90;99.90;;;;;;5076328;28;20253;-64
2021/03/18 09:12:38;;;;;;;16.13;14.37;;;6.00;99.90;;;;;;5078801;28;20249;-68
2021/03/18 09:15:28;;;;;;;14.70;12.63;;;5.80;99.90;;;;;;5068957;28;20254;-63
2021/03/18 09:18:00;;;;;;;15.13;10.93;;;5.70;99.90;;;;;;5072016;28;20930;-66
2021/03/18 09:20:30;;;;;;;13.57;10.13;;;5.50;99.90;;;;;;5078915;28;20200;-67
2021/03/18 09:23:08;;;;;;;12.20;10.10;;;5.40;99.90;;;;;;5080719;28;20199;-59
2021/03/18 09:25:37;;;;;;;11.17;9.77;;;5.30;99.90;;;;;;5080086;28;20200;-63
2021/03/18 09:28:05;;;;;;;10.90;9.73;;;5.20;99.90;;;;;;5078473;28;20202;-63
2021/03/18 09:30:35;;;;;;;13.13;10.53;;;5.10;99.90;;;;;;5084101;28;20322;-67
2021/03/18 09:33:14;;;;;;;12.77;10.67;;;5.10;99.90;;;;;;5089773;28;20720;-63
2021/03/18 09:35:42;;;;;;;17.87;14.33;;;5.20;99.90;;;;;;5090033;28;20226;-64
2021/03/18 09:38:16;;;;;;;11.47;9.63;;;5.40;99.90;;;;;;5089287;28;20261;-63
2021/03/18 09:40:44;;;;;;;13.70;10.30;;;5.60;99.90;;;;;;5090123;28;20219;-62
2021/03/18 09:43:13;;;;;;;11.37;9.50;;;5.60;99.90;;;;;;5089764;28;20208;-62
2021/03/18 09:45:40;;;;;;;11.30;9.40;;;5.70;99.90;;;;;;5089475;28;20226;-61
2021/03/18 09:48:07;;;;;;;11.47;9.10;;;6.00;99.90;;;;;;5089720;28;20231;-61
2021/03/18 09:50:35;;;;;;;14.37;12.87;;;6.10;99.90;;;;;;5089317;28;20239;-60
2021/03/18 09:53:10;;;;;;;12.33;9.23;;;6.30;99.90;;;;;;5089369;28;20228;-63
2021/03/18 09:55:38;;;;;;;11.27;9.23;;;6.40;99.90;;;;;;5089567;28;20234;-64
2021/03/18 09:58:11;;;;;;;11.63;9.27;;;6.50;99.90;;;;;;5088919;28;20203;-66
2021/03/18 10:00:39;;;;;;;10.97;9.70;;;6.70;99.90;;;;;;5088885;28;20560;-63
2021/03/18 10:03:06;;;;;;;10.83;9.23;;;6.80;99.90;;;;;;5088838;28;20288;-63
2021/03/18 10:05:35;;;;;;;11.83;9.17;;;7.00;99.90;;;;;;5078892;28;20208;-60
2021/03/18 10:08:03;;;;;;;12.10;9.63;;;7.30;99.90;;;;;;5072913;28;20209;-64
2021/03/18 10:10:32;;;;;;;10.90;8.60;;;7.60;99.90;;;;;;5069036;28;20204;-61
2021/03/18 10:13:01;;;;;;;10.60;9.33;;;7.80;99.90;;;;;;5069045;28;20185;-63
2021/03/18 10:15:29;;;;;;;10.43;9.33;;;7.90;99.90;;;;;;5068818;28;20212;-63
2021/03/18 10:17:57;;;;;;;9.93;8.17;;;8.00;99.90;;;;;;5068345;28;20208;-60
2021/03/18 10:20:29;;;;;;;10.73;9.57;;;8.10;99.90;;;;;;5069004;28;20208;-64
2021/03/18 10:23:03;;;;;;;11.67;9.30;;;8.30;99.90;;;;;;5068933;28;20262;-63
2021/03/18 10:25:31;;;;;;;11.30;9.77;;;8.30;99.90;;;;;;5068702;28;20262;-63
2021/03/18 10:28:04;;;;;;;9.90;8.60;;;8.40;99.90;;;;;;5068724;28;20254;-61
2021/03/18 10:30:33;;;;;;;10.10;8.63;;;8.20;99.90;;;;;;5068856;28;20212;-64
2021/03/18 10:33:07;;;;;;;11.23;9.33;;;8.20;99.90;;;;;;5068758;28;20204;-66
2021/03/18 10:35:37;;;;;;;10.03;8.40;;;8.10;99.90;;;;;;5068864;28;20535;-67
2021/03/18 10:38:05;;;;;;;10.87;9.20;;;8.30;99.90;;;;;;5068030;28;20262;-67
2021/03/18 10:40:39;;;;;;;10.43;9.00;;;8.30;99.90;;;;;;5068841;28;20204;-68
2021/03/18 10:43:19;;;;;;;10.33;8.17;;;8.20;99.90;;;;;;5068691;28;20270;-68
2021/03/18 10:45:47;;;;;;;10.37;8.40;;;8.00;99.90;;;;;;5068388;28;20181;-68
2021/03/18 10:48:19;;;;;;;10.33;8.20;;;7.90;99.90;;;;;;5068814;28;20296;-60
2021/03/18 10:50:47;;;;;;;10.60;8.67;;;7.70;99.90;;;;;;5069127;28;20185;-61
2021/03/18 10:53:15;;;;;;;9.60;8.27;;;7.40;99.90;;;;;;5073970;28;20335;-61
2021/03/18 10:55:50;;;;;;;12.18;8.73;;;7.30;99.90;;;;;;5088520;28;20459;-63
2021/03/18 10:58:20;;;;;;;10.47;8.23;;;7.20;99.90;;;;;;5078535;28;20781;-64
2021/03/18 11:00:56;;;;;;;9.03;7.97;;;7.30;99.90;;;;;;5068115;28;20208;-61
2021/03/18 11:03:27;;;;;;;10.23;8.80;;;7.20;99.90;;;;;;5068365;28;20181;-63
2021/03/18 11:05:54;;;;;;;9.13;7.33;;;7.20;99.90;;;;;;5068707;28;20667;-65
2021/03/18 11:08:27;;;;;;;8.53;7.30;;;7.70;99.90;;;;;;5068475;28;20201;-64
2021/03/18 11:10:57;;;;;;;8.70;7.80;;;8.40;99.90;;;;;;5068801;28;20184;-63
2021/03/18 11:13:26;;;;;;;9.47;7.43;;;9.00;99.90;;;;;;5068406;28;20200;-67
2021/03/18 11:15:58;;;;;;;7.67;6.87;;;9.40;99.90;;;;;;5068425;28;20205;-69
2021/03/18 11:18:32;;;;;;;8.63;7.20;;;9.60;99.90;;;;;;5068648;28;20644;-70
2021/03/18 11:21:00;;;;;;;8.13;7.13;;;9.30;99.90;;;;;;5068540;28;20189;-70
2021/03/18 11:23:30;;;;;;;9.23;8.00;;;8.70;99.90;;;;;;5071584;28;20292;-61
2021/03/18 11:25:59;;;;;;;8.37;7.47;;;8.40;99.90;;;;;;5085128;28;20287;-62
2021/03/18 11:28:26;;;;;;;8.40;7.17;;;7.90;99.90;;;;;;5088715;28;20293;-62
2021/03/18 11:30:56;;;;;;;8.57;7.03;;;7.40;99.90;;;;;;5090215;28;20306;-61
2021/03/18 11:33:33;;;;;;;8.10;7.27;;;7.00;99.90;;;;;;5087110;28;20712;-61
2021/03/18 11:36:03;;;;;;;8.40;7.50;;;6.60;99.90;;;;;;5079986;28;20184;-62
2021/03/18 11:38:31;;;;;;;9.60;8.17;;;6.40;99.90;;;;;;5088287;28;20238;-62
2021/03/18 11:40:58;;;;;;;9.53;8.07;;;6.10;99.90;;;;;;5092417;28;20203;-62
2021/03/18 11:43:27;;;;;;;10.10;7.77;;;5.90;99.90;;;;;;5091785;28;20259;-62
2021/03/18 11:45:55;;;;;;;9.23;7.90;;;6.00;99.90;;;;;;5091592;28;20681;-61
2021/03/18 11:48:24;;;;;;;8.53;6.63;;;6.20;99.90;;;;;;5091830;28;20327;-61
2021/03/18 11:50:51;;;;;;;7.57;6.77;;;6.30;99.90;;;;;;5091751;28;20210;-62
2021/03/18 11:53:18;;;;;;;8.97;6.93;;;6.70;99.90;;;;;;5091257;28;20274;-61
2021/03/18 11:55:46;;;;;;;8.20;6.87;;;7.10;99.90;;;;;;5092059;28;20196;-62
2021/03/18 11:58:13;;;;;;;6.27;5.13;;;7.50;99.90;;;;;;5093448;28;20211;-62
2021/03/18 12:00:40;;;;;;;7.07;5.37;;;7.80;99.90;;;;;;5097925;28;20230;-60
2021/03/18 12:03:09;;;;;;;7.17;5.90;;;8.30;99.90;;;;;;5099994;28;20202;-63
2021/03/18 12:05:41;;;;;;;7.97;5.93;;;8.60;99.90;;;;;;5094973;28;20203;-61
2021/03/18 12:08:10;;;;;;;7.33;6.17;;;9.20;99.90;;;;;;5084867;28;20201;-63
2021/03/18 12:10:45;;;;;;;7.73;6.30;;;9.60;99.90;;;;;;5071507;28;20268;-62
2021/03/18 12:13:12;;;;;;;7.27;5.87;;;9.70;99.90;;;;;;5082055;28;20300;-62
2021/03/18 12:15:39;;;;;;;7.33;6.00;;;9.80;99.90;;;;;;5071122;28;20549;-62
2021/03/18 12:18:07;;;;;;;6.57;5.67;;;9.80;99.90;;;;;;5071350;28;20204;-63
2021/03/18 12:20:34;;;;;;;6.50;5.20;;;9.50;99.90;;;;;;5071420;28;20212;-62
2021/03/18 12:23:01;;;;;;;8.80;7.17;;;9.10;99.90;;;;;;5070988;28;20212;-62
2021/03/18 12:25:29;;;;;;;8.10;6.87;;;8.70;99.90;;;;;;5070662;28;20307;-62
2021/03/18 12:27:56;;;;;;;7.93;7.13;;;8.20;99.90;;;;;;5071126;28;20208;-61
2021/03/18 12:30:24;;;;;;;10.83;7.67;;;7.80;99.90;;;;;;5070506;28;20283;-63
2021/03/18 12:32:53;;;;;;;9.07;8.07;;;7.70;99.90;;;;;;5071072;28;20270;-62
2021/03/18 12:35:22;;;;;;;8.97;7.40;;;7.70;99.90;;;;;;5070773;28;20204;-66
2021/03/18 12:37:50;;;;;;;10.17;8.30;;;7.80;99.90;;;;;;5069936;28;20686;-66
2021/03/18 12:40:18;;;;;;;8.47;7.57;;;7.70;99.90;;;;;;5070951;28;20224;-69
2021/03/18 12:42:45;;;;;;;7.87;6.90;;;7.70;99.90;;;;;;5070396;28;20718;-70
2021/03/18 12:45:15;;;;;;;8.40;6.10;;;7.50;99.90;;;;;;5070672;28;20308;-68
2021/03/18 12:47:43;;;;;;;7.97;6.20;;;7.40;99.90;;;;;;5070689;28;20240;-68
2021/03/18 12:50:14;;;;;;;5.90;5.05;;;7.40;99.90;;;;;;5076132;28;20456;-63
2021/03/18 12:52:42;;;;;;;5.47;4.43;;;7.20;99.90;;;;;;5075439;28;20291;-63
2021/03/18 12:55:10;;;;;;;5.53;4.60;;;6.90;99.90;;;;;;5070531;28;20284;-65
2021/03/18 12:57:49;;;;;;;4.63;4.07;;;6.30;99.90;;;;;;5070382;28;20192;-65
2021/03/18 13:00:19;;;;;;;6.57;4.47;;;5.80;99.90;;;;;;5070694;28;20210;-64